Time;durP1;ratioP1;P1;durP2;ratioP2;P2;SDS_P1;SDS_P2;PMS_P1;PMS_P2;Temp;Humidity;BMP_temperature;BMP_pressure;BME280_temperature;BME280_humidity;BME280_pressure;Samples;Min_cycle;Max_cycle;Signal;HPM_P1;HPM_P2
2023/06/28 00:01:10;;;;;;;7.18;6.45;;;23.10;59.20;;;;;;4808314;29;20684;-86
2023/06/28 00:03:37;;;;;;;7.20;6.50;;;23.00;59.10;;;;;;4793084;29;20612;-87
2023/06/28 00:06:03;;;;;;;6.75;6.13;;;23.10;59.20;;;;;;4807888;29;20171;-85
2023/06/28 00:08:29;;;;;;;7.22;6.53;;;23.10;59.20;;;;;;4807773;29;20182;-85
2023/06/28 00:10:55;;;;;;;7.40;6.70;;;23.10;59.20;;;;;;4808048;29;20690;-86
2023/06/28 00:13:21;;;;;;;7.15;6.45;;;23.10;59.20;;;;;;4807809;29;20236;-86
2023/06/28 00:15:51;;;;;;;7.30;6.60;;;23.00;59.20;;;;;;4792779;29;20576;-85
2023/06/28 00:18:17;;;;;;;6.53;5.93;;;23.10;59.20;;;;;;4792213;29;20195;-87
2023/06/28 00:20:47;;;;;;;7.82;7.03;;;23.00;59.20;;;;;;4807547;29;20643;-86
2023/06/28 00:23:13;;;;;;;7.50;6.80;;;23.10;59.20;;;;;;4792273;29;20246;-85
2023/06/28 00:25:43;;;;;;;7.05;6.45;;;23.00;59.20;;;;;;4808010;29;20178;-85
2023/06/28 00:28:08;;;;;;;7.38;6.68;;;23.00;59.20;;;;;;4781666;29;20273;-85
2023/06/28 00:30:34;;;;;;;7.30;6.60;;;23.10;59.20;;;;;;4807672;29;20699;-86
2023/06/28 00:33:00;;;;;;;7.20;6.50;;;23.00;59.20;;;;;;4807437;29;20183;-86
2023/06/28 00:35:32;;;;;;;7.18;6.47;;;23.00;59.20;;;;;;4792411;29;20183;-86
2023/06/28 00:38:02;;;;;;;7.15;6.47;;;23.00;59.20;;;;;;4791475;29;20191;-85
2023/06/28 00:40:28;;;;;;;7.32;6.63;;;23.00;59.20;;;;;;4792344;29;20187;-87
2023/06/28 00:42:59;;;;;;;7.13;6.43;;;23.00;59.30;;;;;;4807206;29;20587;-85
2023/06/28 00:45:25;;;;;;;7.38;6.68;;;23.00;59.20;;;;;;4790770;29;20199;-85
2023/06/28 00:47:51;;;;;;;7.55;6.85;;;23.00;59.20;;;;;;4807430;29;20159;-87
2023/06/28 00:50:21;;;;;;;7.50;6.80;;;23.00;59.30;;;;;;4808216;29;20672;-86
2023/06/28 00:52:51;;;;;;;7.18;6.47;;;23.00;59.20;;;;;;4806583;29;20210;-86
2023/06/28 00:55:21;;;;;;;7.15;6.47;;;23.00;59.30;;;;;;4806548;29;20187;-85
2023/06/28 00:57:47;;;;;;;7.00;6.40;;;23.00;60.00;;;;;;4791429;29;20187;-85
2023/06/28 01:00:13;;;;;;;7.07;6.38;;;23.00;59.30;;;;;;4807182;29;20508;-84
2023/06/28 01:02:44;;;;;;;6.97;6.28;;;23.00;59.30;;;;;;4806865;29;20524;-85
2023/06/28 01:05:11;;;;;;;7.63;6.93;;;23.00;59.30;;;;;;4808042;29;20163;-85
2023/06/28 01:07:37;;;;;;;6.93;6.30;;;22.90;59.20;;;;;;4807154;29;20179;-84
2023/06/28 01:10:07;;;;;;;7.78;7.07;;;22.90;59.20;;;;;;4791693;29;20263;-85
2023/06/28 01:12:33;;;;;;;7.88;6.68;;;23.00;59.30;;;;;;4791566;29;20194;-86
2023/06/28 01:15:03;;;;;;;7.22;6.60;;;23.00;59.30;;;;;;4791725;29;20178;-84
2023/06/28 01:17:29;;;;;;;6.75;6.15;;;23.00;59.30;;;;;;4806211;29;20190;-86
2023/06/28 01:19:59;;;;;;;7.20;6.50;;;23.00;59.30;;;;;;4806975;29;20171;-84
2023/06/28 01:22:26;;;;;;;6.82;6.22;;;23.00;59.30;;;;;;4790901;29;20418;-85
2023/06/28 01:24:52;;;;;;;6.68;6.07;;;22.90;59.30;;;;;;4807526;29;20183;-86
2023/06/28 01:27:18;;;;;;;7.07;6.47;;;22.90;59.40;;;;;;4791232;29;20183;-85
2023/06/28 01:29:44;;;;;;;7.43;6.43;;;22.90;59.40;;;;;;4806692;29;20239;-85
2023/06/28 01:32:10;;;;;;;7.20;6.50;;;23.00;59.50;;;;;;4791316;29;20643;-86
2023/06/28 01:34:41;;;;;;;7.50;6.80;;;23.00;59.40;;;;;;4806501;29;20177;-87
2023/06/28 01:37:11;;;;;;;7.15;6.53;;;22.90;59.40;;;;;;4775725;29;20194;-86
2023/06/28 01:39:41;;;;;;;7.47;6.78;;;23.00;59.40;;;;;;4790736;29;20197;-85
2023/06/28 01:42:12;;;;;;;7.70;7.00;;;22.90;59.40;;;;;;4790589;29;20225;-85
2023/06/28 01:44:38;;;;;;;7.22;6.53;;;22.90;59.40;;;;;;4790658;29;20251;-85
2023/06/28 01:47:09;;;;;;;7.70;6.90;;;22.90;59.40;;;;;;4806598;29;20534;-86
2023/06/28 01:49:39;;;;;;;7.28;6.57;;;22.90;59.40;;;;;;4775839;29;20617;-85
2023/06/28 01:52:09;;;;;;;7.70;7.00;;;22.90;59.40;;;;;;4775436;29;20186;-85
2023/06/28 01:54:35;;;;;;;7.68;6.93;;;22.90;59.40;;;;;;4790357;29;20221;-85
2023/06/28 01:57:02;;;;;;;7.47;6.72;;;22.90;59.50;;;;;;4807347;29;20159;-86
2023/06/28 01:59:28;;;;;;;7.38;6.68;;;22.90;59.40;;;;;;4807136;29;20631;-86
2023/06/28 02:01:54;;;;;;;7.95;7.15;;;22.90;59.50;;;;;;4805819;29;20227;-85
2023/06/28 02:04:20;;;;;;;6.70;6.10;;;22.90;59.40;;;;;;4790905;29;20539;-85
2023/06/28 02:06:46;;;;;;;7.20;6.50;;;22.90;59.50;;;;;;4791079;29;20168;-87
2023/06/28 02:09:12;;;;;;;7.28;6.57;;;22.90;59.50;;;;;;4807245;29;20170;-87
2023/06/28 02:11:38;;;;;;;7.35;6.45;;;22.90;59.50;;;;;;4805654;29;20178;-86
2023/06/28 02:14:04;;;;;;;7.22;6.53;;;22.90;59.50;;;;;;4805736;29;20167;-86
2023/06/28 02:16:30;;;;;;;7.53;6.82;;;22.90;59.50;;;;;;4790880;29;20171;-86
2023/06/28 02:19:00;;;;;;;7.00;6.30;;;22.90;59.50;;;;;;4791327;29;20179;-84
2023/06/28 02:21:32;;;;;;;7.35;6.63;;;22.90;59.60;;;;;;4775232;29;20262;-84
2023/06/28 02:23:58;;;;;;;7.43;6.72;;;23.00;59.60;;;;;;4789781;29;20566;-85
2023/06/28 02:26:24;;;;;;;7.47;6.78;;;22.90;59.50;;;;;;4790426;29;20175;-87
2023/06/28 02:28:50;;;;;;;6.95;6.35;;;22.90;59.60;;;;;;4790337;29;20230;-87
2023/06/28 02:31:17;;;;;;;7.25;6.55;;;22.90;59.60;;;;;;4790462;29;20185;-85
2023/06/28 02:33:43;;;;;;;7.05;6.35;;;22.90;59.60;;;;;;4790876;29;20561;-85
2023/06/28 02:36:15;;;;;;;7.32;6.63;;;22.90;59.60;;;;;;4805439;29;20262;-87
2023/06/28 02:38:41;;;;;;;7.10;6.50;;;22.90;59.60;;;;;;4789774;29;20716;-87
2023/06/28 02:41:11;;;;;;;7.57;6.80;;;22.80;59.60;;;;;;4805773;29;20175;-86
2023/06/28 02:43:37;;;;;;;7.78;6.97;;;22.80;59.60;;;;;;4790138;29;20683;-85
2023/06/28 02:46:07;;;;;;;6.95;6.35;;;22.80;59.60;;;;;;4790451;29;20190;-85
2023/06/28 02:48:37;;;;;;;8.10;7.30;;;22.80;59.60;;;;;;4790033;29;20206;-86
2023/06/28 02:51:03;;;;;;;7.13;6.47;;;22.90;59.60;;;;;;4775176;29;20307;-87
2023/06/28 02:53:33;;;;;;;6.68;6.07;;;22.80;59.60;;;;;;4805434;29;20190;-85
2023/06/28 02:55:59;;;;;;;7.07;6.47;;;22.80;59.50;;;;;;4789695;29;20191;-86
2023/06/28 02:58:25;;;;;;;7.55;6.85;;;22.90;59.60;;;;;;4790228;29;20177;-84
2023/06/28 03:00:51;;;;;;;7.45;6.75;;;22.90;59.50;;;;;;4805677;29;20163;-85
2023/06/28 03:03:18;;;;;;;7.30;6.63;;;22.90;59.60;;;;;;4805842;29;20198;-88
2023/06/28 03:05:45;;;;;;;7.75;7.05;;;22.90;59.60;;;;;;4806083;29;20179;-84
2023/06/28 03:08:15;;;;;;;7.60;6.90;;;22.90;59.60;;;;;;4791213;29;20182;-86
2023/06/28 03:10:41;;;;;;;7.85;7.05;;;22.80;59.60;;;;;;4795830;29;20201;-85
2023/06/28 03:13:07;;;;;;;7.20;6.50;;;22.80;59.60;;;;;;4811333;29;20177;-87
2023/06/28 03:15:36;;;;;;;7.32;6.63;;;22.90;59.60;;;;;;4812420;29;20343;-87
2023/06/28 03:18:02;;;;;;;7.45;6.75;;;22.90;59.60;;;;;;4795864;29;20186;-86
2023/06/28 03:20:32;;;;;;;7.63;6.93;;;22.90;59.60;;;;;;4811545;29;20285;-86
2023/06/28 03:23:02;;;;;;;7.38;6.60;;;22.90;59.40;;;;;;4795687;29;20226;-85
2023/06/28 03:25:28;;;;;;;7.07;6.47;;;22.90;59.50;;;;;;4795681;29;20186;-85
2023/06/28 03:27:54;;;;;;;7.20;6.50;;;22.90;59.40;;;;;;4795810;29;20238;-86
2023/06/28 03:30:23;;;;;;;7.57;6.88;;;22.90;59.40;;;;;;4811200;29;20174;-85
2023/06/28 03:32:49;;;;;;;7.35;6.65;;;23.00;59.30;;;;;;4795506;29;20237;-87
2023/06/28 03:35:15;;;;;;;7.00;6.40;;;23.00;59.20;;;;;;4796288;29;20213;-86
2023/06/28 03:37:54;;;;;;;7.57;6.88;;;23.00;59.20;;;;;;4796284;29;20213;-85
2023/06/28 03:40:23;;;;;;;7.38;6.68;;;23.00;59.10;;;;;;4796065;29;20684;-85
2023/06/28 03:42:49;;;;;;;7.63;6.93;;;23.00;59.20;;;;;;4795854;29;20218;-85
2023/06/28 03:45:15;;;;;;;7.25;6.55;;;23.00;59.10;;;;;;4812662;29;20167;-85
2023/06/28 03:47:41;;;;;;;7.07;6.38;;;23.00;59.00;;;;;;4811311;29;20230;-86
2023/06/28 03:50:13;;;;;;;7.88;7.07;;;23.00;59.00;;;;;;4811060;29;20281;-85
2023/06/28 03:52:39;;;;;;;7.32;6.47;;;23.00;59.00;;;;;;4795380;29;20183;-87
2023/06/28 03:55:06;;;;;;;7.18;6.47;;;23.10;59.10;;;;;;4811311;29;20246;-84
2023/06/28 03:57:32;;;;;;;8.05;6.53;;;23.10;59.00;;;;;;4796006;29;20722;-86
2023/06/28 03:59:58;;;;;;;7.20;6.53;;;23.10;59.00;;;;;;4812050;29;20189;-85
2023/06/28 04:02:25;;;;;;;7.28;6.57;;;23.10;58.90;;;;;;4795950;29;20589;-86
2023/06/28 04:05:01;;;;;;;7.57;6.75;;;23.10;58.90;;;;;;4796500;29;20197;-85
2023/06/28 04:07:28;;;;;;;7.22;6.53;;;23.10;58.90;;;;;;4780316;29;20190;-86
2023/06/28 04:09:54;;;;;;;7.32;6.68;;;23.10;58.70;;;;;;4811194;29;20163;-87
2023/06/28 04:12:20;;;;;;;7.35;6.70;;;23.10;58.70;;;;;;4812652;29;20527;-88
2023/06/28 04:14:47;;;;;;;7.38;6.68;;;23.10;58.70;;;;;;4796125;29;20179;-87
2023/06/28 04:17:16;;;;;;;6.82;6.22;;;23.20;58.70;;;;;;4812442;29;20718;-87
2023/06/28 04:19:43;;;;;;;7.63;6.50;;;23.20;58.70;;;;;;4780507;29;20191;-86
2023/06/28 04:22:16;;;;;;;7.38;6.32;;;23.20;58.70;;;;;;4792749;29;20203;-87
2023/06/28 04:24:42;;;;;;;7.43;6.72;;;23.20;58.70;;;;;;4793195;29;20198;-87
2023/06/28 04:27:11;;;;;;;7.05;6.38;;;23.10;58.60;;;;;;4808405;29;20170;-88
2023/06/28 04:29:37;;;;;;;7.15;6.45;;;23.20;58.50;;;;;;4808287;29;20171;-87
2023/06/28 04:32:20;;;;;;;7.28;6.60;;;23.30;58.40;;;;;;4823520;29;20707;-85
2023/06/28 04:34:56;;;;;;;6.97;6.30;;;23.30;58.30;;;;;;4823165;29;20163;-85
2023/06/28 04:37:22;;;;;;;6.85;6.20;;;23.30;58.30;;;;;;4792876;29;20226;-85
2023/06/28 04:39:52;;;;;;;7.38;6.68;;;23.40;58.40;;;;;;4808850;29;20224;-85
2023/06/28 04:42:22;;;;;;;7.00;6.40;;;23.30;58.40;;;;;;4807606;29;20219;-84
2023/06/28 04:44:59;;;;;;;6.93;6.30;;;23.30;58.30;;;;;;4807876;29;20246;-86
2023/06/28 04:47:29;;;;;;;7.13;6.43;;;23.30;58.30;;;;;;4792709;29;20198;-85
2023/06/28 04:49:55;;;;;;;7.18;6.47;;;23.40;58.30;;;;;;4807597;29;20331;-87
2023/06/28 04:52:22;;;;;;;7.40;6.70;;;23.30;58.30;;;;;;4823095;29;20194;-86
2023/06/28 04:54:49;;;;;;;6.70;6.10;;;23.30;58.30;;;;;;4807883;29;20179;-85
2023/06/28 04:57:15;;;;;;;6.97;6.28;;;23.30;58.30;;;;;;4809659;29;20171;-84
2023/06/28 04:59:42;;;;;;;7.40;6.70;;;23.30;58.30;;;;;;4809820;29;20265;-84
2023/06/28 05:02:15;;;;;;;6.68;6.07;;;23.30;58.30;;;;;;4810994;29;20205;-85
2023/06/28 05:04:42;;;;;;;7.47;6.78;;;23.30;58.30;;;;;;4795141;29;20196;-85
2023/06/28 05:07:10;;;;;;;7.10;6.40;;;23.40;58.10;;;;;;4823627;29;20269;-87
2023/06/28 05:09:39;;;;;;;7.18;6.50;;;23.40;58.10;;;;;;4808528;29;20723;-85
2023/06/28 05:12:08;;;;;;;6.85;6.25;;;23.40;58.00;;;;;;4808205;29;20616;-85
2023/06/28 05:14:38;;;;;;;7.78;7.07;;;23.40;58.10;;;;;;4793051;29;20240;-86
2023/06/28 05:17:03;;;;;;;6.82;6.13;;;23.50;58.00;;;;;;4791922;29;20191;-85
2023/06/28 05:19:29;;;;;;;7.57;6.88;;;23.40;58.00;;;;;;4824888;29;20177;-85
2023/06/28 05:21:57;;;;;;;6.95;6.32;;;23.50;58.00;;;;;;4809363;29;20622;-85
2023/06/28 05:24:23;;;;;;;7.35;6.65;;;23.50;58.00;;;;;;4807077;29;20203;-87
2023/06/28 05:26:48;;;;;;;7.20;6.50;;;23.50;57.80;;;;;;4821670;29;20699;-84
2023/06/28 05:29:15;;;;;;;6.80;6.20;;;23.40;57.70;;;;;;4803286;29;20245;-86
2023/06/28 05:31:41;;;;;;;7.55;6.85;;;23.50;57.60;;;;;;4803314;29;20184;-85
2023/06/28 05:34:11;;;;;;;7.60;6.82;;;23.60;57.80;;;;;;4819819;29;20160;-83
2023/06/28 05:36:39;;;;;;;7.90;7.20;;;23.50;57.70;;;;;;4789571;30;20275;-86
2023/06/28 05:39:05;;;;;;;7.45;6.75;;;23.40;58.00;;;;;;4815406;29;20279;-85
2023/06/28 05:41:35;;;;;;;7.25;6.57;;;23.30;58.60;;;;;;4801589;29;20619;-87
2023/06/28 05:44:01;;;;;;;7.20;6.50;;;23.10;59.10;;;;;;4814996;29;20746;-87
2023/06/28 05:46:28;;;;;;;7.22;6.53;;;23.10;59.50;;;;;;4799018;29;20195;-87
2023/06/28 05:48:55;;;;;;;7.05;6.38;;;23.10;59.60;;;;;;4784341;30;20188;-85
2023/06/28 05:51:23;;;;;;;7.40;6.68;;;23.00;59.70;;;;;;4800694;29;20179;-86
2023/06/28 05:53:49;;;;;;;6.90;6.30;;;23.00;59.80;;;;;;4801196;29;20187;-86
2023/06/28 05:56:15;;;;;;;7.20;6.50;;;23.10;59.80;;;;;;4771321;30;20631;-85
2023/06/28 05:58:41;;;;;;;7.63;6.32;;;23.10;59.70;;;;;;4800115;29;20214;-87
2023/06/28 06:01:07;;;;;;;7.57;6.88;;;23.10;59.60;;;;;;4800012;29;20239;-87
2023/06/28 06:03:33;;;;;;;7.03;6.43;;;23.10;59.80;;;;;;4799972;29;20570;-85
2023/06/28 06:06:02;;;;;;;7.13;6.43;;;23.10;59.80;;;;;;4769961;30;20720;-86
2023/06/28 06:08:28;;;;;;;7.03;6.32;;;23.10;59.90;;;;;;4769404;30;20610;-84
2023/06/28 06:10:59;;;;;;;8.02;7.22;;;23.20;59.80;;;;;;4800296;29;20197;-85
2023/06/28 06:13:25;;;;;;;7.00;6.40;;;23.20;59.90;;;;;;4799225;29;20196;-85
2023/06/28 06:15:55;;;;;;;6.53;5.90;;;23.20;60.00;;;;;;4784855;30;20656;-85
2023/06/28 06:18:25;;;;;;;6.93;6.32;;;23.20;60.00;;;;;;4799325;29;20188;-86
2023/06/28 06:20:55;;;;;;;6.90;6.30;;;23.20;60.10;;;;;;4784668;30;20351;-84
2023/06/28 06:23:21;;;;;;;7.00;6.38;;;23.20;60.00;;;;;;4784238;30;20746;-85
2023/06/28 06:25:51;;;;;;;7.30;6.60;;;23.20;60.00;;;;;;4799794;29;20168;-85
2023/06/28 06:28:17;;;;;;;6.70;6.10;;;23.10;60.10;;;;;;4787554;29;20234;-84
2023/06/28 06:30:50;;;;;;;6.43;5.82;;;23.10;60.10;;;;;;4804168;29;20198;-87
2023/06/28 06:33:24;;;;;;;7.43;6.72;;;23.20;60.00;;;;;;4788528;30;20195;-86
2023/06/28 06:35:54;;;;;;;6.43;5.82;;;23.20;59.90;;;;;;4783661;30;20248;-84
2023/06/28 06:38:25;;;;;;;6.70;6.10;;;23.10;60.20;;;;;;4783370;30;20344;-84
2023/06/28 06:40:54;;;;;;;7.07;6.38;;;23.10;60.60;;;;;;4800881;29;20203;-84
2023/06/28 06:43:19;;;;;;;7.43;6.72;;;23.10;60.30;;;;;;4820811;29;20202;-86
2023/06/28 06:45:48;;;;;;;7.20;6.50;;;23.10;60.50;;;;;;4808240;29;20170;-85
2023/06/28 06:48:14;;;;;;;6.68;6.07;;;23.10;60.40;;;;;;4809205;29;20219;-83
2023/06/28 06:50:40;;;;;;;6.53;5.93;;;23.30;60.30;;;;;;4808355;29;20159;-85
2023/06/28 06:53:09;;;;;;;6.75;6.15;;;23.20;60.00;;;;;;4795006;29;20299;-84
2023/06/28 06:55:35;;;;;;;7.07;6.38;;;23.30;60.00;;;;;;4811620;29;20249;-84
2023/06/28 06:58:07;;;;;;;6.95;6.25;;;23.20;60.10;;;;;;4796607;29;20221;-84
2023/06/28 07:00:34;;;;;;;6.55;5.95;;;23.20;60.00;;;;;;4779631;29;20195;-84
2023/06/28 07:03:04;;;;;;;6.53;5.93;;;23.30;59.80;;;;;;4812681;29;20195;-84
2023/06/28 07:05:31;;;;;;;6.53;5.93;;;23.30;59.90;;;;;;4811432;29;20171;-84
2023/06/28 07:07:57;;;;;;;6.93;6.32;;;23.30;59.70;;;;;;4803444;29;20174;-85
2023/06/28 07:10:23;;;;;;;6.82;6.20;;;23.20;59.80;;;;;;4800493;29;20174;-85
2023/06/28 07:12:48;;;;;;;7.35;6.65;;;23.30;59.70;;;;;;4797505;29;20194;-85
2023/06/28 07:15:14;;;;;;;6.80;6.10;;;23.30;59.80;;;;;;4811372;29;20223;-85
2023/06/28 07:17:40;;;;;;;6.60;5.93;;;23.30;59.90;;;;;;4813297;29;20155;-85
2023/06/28 07:20:07;;;;;;;6.47;5.88;;;23.30;59.70;;;;;;4797597;29;20240;-86
2023/06/28 07:22:36;;;;;;;6.82;6.15;;;23.40;59.60;;;;;;4808047;29;20667;-86
2023/06/28 07:25:04;;;;;;;6.50;5.90;;;23.40;59.50;;;;;;4822880;29;20178;-85
2023/06/28 07:27:31;;;;;;;6.40;5.80;;;23.50;59.40;;;;;;4830666;29;20183;-85
2023/06/28 07:29:57;;;;;;;6.65;6.05;;;23.40;59.20;;;;;;4817093;29;20183;-85
2023/06/28 07:32:26;;;;;;;6.55;5.95;;;23.50;59.10;;;;;;4816443;29;20190;-85
2023/06/28 07:34:54;;;;;;;6.00;5.50;;;23.50;59.00;;;;;;4827074;29;20662;-85
2023/06/28 07:37:20;;;;;;;6.70;6.10;;;23.60;59.00;;;;;;4799941;29;20199;-85
2023/06/28 07:39:46;;;;;;;6.53;5.93;;;23.50;59.00;;;;;;4830264;29;20186;-85
2023/06/28 07:42:13;;;;;;;6.20;5.60;;;23.50;59.00;;;;;;4800914;29;20704;-85
2023/06/28 07:44:41;;;;;;;6.65;5.85;;;23.60;59.00;;;;;;4799493;29;20182;-85
2023/06/28 07:47:09;;;;;;;6.38;5.78;;;23.60;58.70;;;;;;4818503;29;20167;-85
2023/06/28 07:49:35;;;;;;;6.22;5.63;;;23.60;58.70;;;;;;4827809;29;20190;-85
2023/06/28 07:52:03;;;;;;;6.22;5.63;;;23.60;58.80;;;;;;4829283;29;20174;-86
2023/06/28 07:54:29;;;;;;;7.60;5.50;;;23.60;58.90;;;;;;4832200;29;20200;-85
2023/06/28 07:56:58;;;;;;;6.50;5.90;;;23.50;58.80;;;;;;4827794;29;20171;-85
2023/06/28 07:59:23;;;;;;;8.27;5.68;;;23.50;58.80;;;;;;4819745;29;20564;-85
2023/06/28 08:01:51;;;;;;;8.02;5.75;;;23.60;58.70;;;;;;4806890;29;20220;-85
2023/06/28 08:04:22;;;;;;;6.40;5.47;;;23.60;58.70;;;;;;4805550;29;20183;-84
2023/06/28 08:06:48;;;;;;;8.77;5.80;;;23.60;58.50;;;;;;4824546;29;20203;-85
2023/06/28 08:09:15;;;;;;;6.50;5.82;;;23.60;58.40;;;;;;4819441;29;20175;-84
2023/06/28 08:11:45;;;;;;;6.10;5.35;;;23.60;58.50;;;;;;4819494;29;20179;-84
2023/06/28 08:14:11;;;;;;;6.93;5.72;;;23.60;58.60;;;;;;4819250;29;20187;-85
2023/06/28 08:16:37;;;;;;;7.00;5.65;;;23.60;58.50;;;;;;4819294;29;20178;-84
2023/06/28 08:19:02;;;;;;;7.30;6.00;;;23.60;58.30;;;;;;4820739;29;20254;-85
2023/06/28 08:21:30;;;;;;;8.50;5.70;;;23.60;58.50;;;;;;4826242;29;20171;-84
2023/06/28 08:23:57;;;;;;;6.43;5.88;;;23.60;58.30;;;;;;4818529;29;20251;-85
2023/06/28 08:26:24;;;;;;;6.55;5.95;;;23.60;58.20;;;;;;4822715;29;20175;-84
2023/06/28 08:28:50;;;;;;;6.78;5.50;;;23.70;58.00;;;;;;4802611;29;20277;-84
2023/06/28 08:31:16;;;;;;;8.07;5.68;;;23.70;57.90;;;;;;4817414;29;20543;-83
2023/06/28 08:33:48;;;;;;;8.93;5.35;;;23.80;57.80;;;;;;4801847;29;20187;-84
2023/06/28 08:36:14;;;;;;;7.25;5.28;;;23.80;57.80;;;;;;4801038;29;20195;-84
2023/06/28 08:38:41;;;;;;;7.68;5.25;;;23.80;57.90;;;;;;4820571;29;20262;-84
2023/06/28 08:41:08;;;;;;;8.43;6.00;;;23.80;57.70;;;;;;4817797;29;20215;-85
2023/06/28 08:43:34;;;;;;;6.78;6.07;;;23.90;57.50;;;;;;4818362;29;20286;-84
2023/06/28 08:46:00;;;;;;;6.47;5.82;;;23.90;57.80;;;;;;4803631;29;20179;-85
2023/06/28 08:48:26;;;;;;;6.28;5.68;;;23.80;57.70;;;;;;4819761;29;20163;-85
2023/06/28 08:50:54;;;;;;;6.40;5.80;;;23.70;57.50;;;;;;4819708;29;20171;-85
2023/06/28 08:53:21;;;;;;;8.60;6.05;;;23.90;57.30;;;;;;4819181;29;20167;-85
2023/06/28 08:55:47;;;;;;;6.13;5.53;;;23.90;57.30;;;;;;4803529;29;20206;-85
2023/06/28 08:58:14;;;;;;;6.35;5.75;;;23.90;57.30;;;;;;4818235;29;20190;-85
2023/06/28 09:00:44;;;;;;;5.85;5.35;;;23.90;57.40;;;;;;4802298;29;20187;-85
2023/06/28 09:03:15;;;;;;;5.93;5.43;;;23.90;57.30;;;;;;4784986;29;20230;-85
2023/06/28 09:05:44;;;;;;;6.47;5.53;;;23.90;57.40;;;;;;4785661;29;20187;-84
2023/06/28 09:08:11;;;;;;;6.30;5.70;;;23.90;57.40;;;;;;4800610;29;20175;-84
2023/06/28 09:10:39;;;;;;;6.43;5.82;;;23.90;57.10;;;;;;4801601;29;20530;-84
2023/06/28 09:13:05;;;;;;;7.45;5.78;;;23.90;57.20;;;;;;4815619;29;20171;-84
2023/06/28 09:15:35;;;;;;;6.05;5.30;;;24.00;57.20;;;;;;4815809;29;20170;-84
2023/06/28 09:18:00;;;;;;;9.05;5.75;;;23.90;57.10;;;;;;4801458;29;20190;-84
2023/06/28 09:20:26;;;;;;;6.75;5.78;;;23.90;57.20;;;;;;4816491;29;20171;-84
2023/06/28 09:22:59;;;;;;;7.60;4.97;;;23.90;57.00;;;;;;4784846;29;20203;-85
2023/06/28 09:25:27;;;;;;;6.32;5.53;;;24.00;56.70;;;;;;4797957;30;20212;-84
2023/06/28 09:27:54;;;;;;;6.13;5.55;;;23.90;56.70;;;;;;4813616;29;20222;-84
2023/06/28 09:30:22;;;;;;;6.47;5.45;;;23.90;56.70;;;;;;4791268;29;20175;-84
2023/06/28 09:32:51;;;;;;;6.97;5.60;;;23.90;56.70;;;;;;4791162;29;20204;-84
2023/06/28 09:35:18;;;;;;;6.00;5.40;;;23.90;56.70;;;;;;4791154;29;20265;-84
2023/06/28 09:37:48;;;;;;;8.60;5.70;;;24.00;56.70;;;;;;4806427;29;20169;-84
2023/06/28 09:40:15;;;;;;;6.63;6.03;;;24.00;56.40;;;;;;4806184;29;20211;-85
2023/06/28 09:42:44;;;;;;;5.93;5.32;;;24.00;56.50;;;;;;4790861;29;20210;-85
2023/06/28 09:45:14;;;;;;;5.85;5.30;;;23.90;56.60;;;;;;4801077;29;20221;-84
2023/06/28 09:47:40;;;;;;;7.90;5.50;;;24.00;56.40;;;;;;4824215;29;20162;-85
2023/06/28 09:50:06;;;;;;;6.03;5.45;;;24.00;56.30;;;;;;4817117;29;20167;-84
2023/06/28 09:52:36;;;;;;;6.35;5.75;;;24.00;56.30;;;;;;4802857;29;20224;-85
2023/06/28 09:55:03;;;;;;;6.18;5.57;;;24.00;56.20;;;;;;4787524;30;20258;-84
2023/06/28 09:57:29;;;;;;;6.50;5.50;;;24.00;56.30;;;;;;4802736;29;20226;-85
2023/06/28 09:59:55;;;;;;;5.55;5.03;;;24.10;56.00;;;;;;4802589;29;20774;-85
2023/06/28 10:02:22;;;;;;;5.60;5.10;;;24.10;55.80;;;;;;4789264;30;20675;-83
2023/06/28 10:04:49;;;;;;;5.85;5.25;;;24.00;55.90;;;;;;4798135;30;20187;-83
2023/06/28 10:07:15;;;;;;;4.85;4.45;;;24.10;55.90;;;;;;4792637;29;20183;-86
2023/06/28 10:09:41;;;;;;;6.03;5.43;;;24.00;56.00;;;;;;4806253;29;20175;-86
2023/06/28 10:12:13;;;;;;;5.80;5.28;;;24.00;56.00;;;;;;4805544;29;20163;-86
2023/06/28 10:14:44;;;;;;;6.65;4.97;;;24.10;55.50;;;;;;4806164;29;20220;-87
2023/06/28 10:17:10;;;;;;;6.13;5.50;;;24.10;55.10;;;;;;4805593;29;20186;-87
2023/06/28 10:19:36;;;;;;;6.25;5.43;;;24.00;55.30;;;;;;4805050;29;20159;-86
2023/06/28 10:22:01;;;;;;;6.03;5.45;;;24.10;55.20;;;;;;4807781;29;20259;-85
2023/06/28 10:24:34;;;;;;;5.53;5.03;;;23.90;55.50;;;;;;4810357;29;20261;-85
2023/06/28 10:27:00;;;;;;;5.70;5.18;;;23.90;55.40;;;;;;4776467;30;20228;-83
2023/06/28 10:29:53;;;;;;;5.95;4.70;;;24.00;55.20;;;;;;4782487;30;20304;-85
2023/06/28 10:32:19;;;;;;;5.93;5.43;;;24.10;55.00;;;;;;4771833;30;20589;-86
2023/06/28 10:34:47;;;;;;;6.38;5.43;;;24.10;55.00;;;;;;4767649;30;20244;-84
2023/06/28 10:37:13;;;;;;;6.10;5.50;;;24.00;55.00;;;;;;4785269;30;20183;-84
2023/06/28 10:39:39;;;;;;;5.63;5.13;;;24.10;54.60;;;;;;4772104;30;20192;-85
2023/06/28 10:42:08;;;;;;;5.13;4.63;;;24.20;54.50;;;;;;4785846;30;20172;-84
2023/06/28 10:44:34;;;;;;;5.25;4.75;;;24.20;54.20;;;;;;4783496;30;20191;-86
2023/06/28 10:47:23;;;;;;;5.65;5.05;;;24.30;54.10;;;;;;4770219;30;20175;-85
2023/06/28 10:50:04;;;;;;;4.65;4.25;;;24.40;53.90;;;;;;4768221;30;20192;-85
2023/06/28 10:52:49;;;;;;;5.35;4.85;;;24.50;53.80;;;;;;4768603;30;20592;-85
2023/06/28 10:56:00;;;;;;;5.55;4.40;;;24.40;53.60;;;;;;4754868;30;20196;-85
2023/06/28 10:58:54;;;;;;;5.10;4.60;;;24.40;53.40;;;;;;4766276;30;20228;-86
2023/06/28 11:01:53;;;;;;;5.40;4.90;;;24.40;53.40;;;;;;4768706;30;20621;-86
2023/06/28 11:04:24;;;;;;;5.43;4.65;;;24.40;53.30;;;;;;4790018;29;20187;-85
2023/06/28 11:07:14;;;;;;;7.93;5.00;;;24.40;53.20;;;;;;4774072;30;20179;-86
2023/06/28 11:10:16;;;;;;;8.20;5.03;;;24.40;53.10;;;;;;4802136;29;20195;-83
2023/06/28 11:12:47;;;;;;;7.88;5.30;;;24.40;53.00;;;;;;4804244;29;20198;-83
2023/06/28 11:15:13;;;;;;;7.55;5.60;;;24.40;52.90;;;;;;4786759;30;20593;-84
2023/06/28 11:17:39;;;;;;;12.23;5.40;;;24.40;52.70;;;;;;4788777;30;20225;-84
2023/06/28 11:20:06;;;;;;;6.63;5.32;;;24.40;52.80;;;;;;4803610;29;20164;-85
2023/06/28 11:22:48;;;;;;;5.18;4.68;;;24.30;53.00;;;;;;4789169;29;20203;-84
2023/06/28 11:25:13;;;;;;;7.13;4.90;;;24.20;53.00;;;;;;4805302;29;20624;-85
2023/06/28 11:27:41;;;;;;;5.10;4.60;;;24.30;52.80;;;;;;4804450;29;20235;-83
2023/06/28 11:30:43;;;;;;;9.38;5.38;;;24.30;52.70;;;;;;4806789;29;20242;-82
2023/06/28 11:33:34;;;;;;;7.90;4.47;;;24.30;52.90;;;;;;4810129;29;20718;-84
2023/06/28 11:39:21;;;;;;;5.13;4.28;;;24.20;52.70;;;;;;4720948;30;20197;-85
2023/06/28 11:41:53;;;;;;;8.77;4.90;;;24.20;52.50;;;;;;4702274;30;20190;-85
2023/06/28 11:44:20;;;;;;;7.05;4.88;;;24.30;52.40;;;;;;4708913;30;20201;-85
2023/06/28 11:46:46;;;;;;;9.20;4.80;;;24.30;52.40;;;;;;4719741;30;20182;-85
2023/06/28 11:49:14;;;;;;;5.32;4.55;;;24.40;52.30;;;;;;4705059;30;20675;-84
2023/06/28 11:51:45;;;;;;;9.38;4.68;;;24.50;51.80;;;;;;4703863;30;20206;-85
2023/06/28 11:54:11;;;;;;;7.47;5.00;;;24.50;51.80;;;;;;4705274;30;20202;-84
2023/06/28 11:56:45;;;;;;;7.35;4.85;;;24.50;51.80;;;;;;4721118;30;20342;-84
2023/06/28 11:59:14;;;;;;;7.93;4.93;;;24.40;51.90;;;;;;4717242;30;20222;-85
2023/06/28 12:01:40;;;;;;;6.05;4.80;;;24.30;52.00;;;;;;4719262;30;20232;-83
2023/06/28 12:04:14;;;;;;;5.45;4.60;;;24.30;52.00;;;;;;4712558;30;20258;-84
2023/06/28 12:06:41;;;;;;;6.05;4.60;;;24.30;52.50;;;;;;4710003;30;20182;-84
2023/06/28 12:09:26;;;;;;;6.75;4.68;;;24.40;51.90;;;;;;4708215;30;20240;-84
2023/06/28 12:11:57;;;;;;;7.18;4.88;;;24.40;51.50;;;;;;4718462;30;20178;-85
2023/06/28 12:14:28;;;;;;;6.05;4.45;;;24.40;51.60;;;;;;4737124;30;20233;-86
2023/06/28 12:16:54;;;;;;;7.88;5.03;;;24.40;51.60;;;;;;4794667;30;20171;-83
2023/06/28 12:19:20;;;;;;;6.63;4.47;;;24.40;51.70;;;;;;4792899;29;20750;-86
2023/06/28 12:21:47;;;;;;;5.63;4.25;;;24.40;51.80;;;;;;4791617;30;20585;-85
2023/06/28 12:24:16;;;;;;;7.43;5.03;;;24.60;51.70;;;;;;4791348;30;20203;-82
2023/06/28 12:26:44;;;;;;;8.35;4.78;;;24.60;51.30;;;;;;4791563;30;20289;-84
2023/06/28 12:29:10;;;;;;;8.65;4.60;;;24.60;51.50;;;;;;4778061;29;20231;-84
2023/06/28 12:31:47;;;;;;;7.00;4.63;;;24.60;51.50;;;;;;4810393;29;20171;-84
2023/06/28 12:34:22;;;;;;;9.52;4.50;;;24.60;51.20;;;;;;4811802;29;20190;-82
2023/06/28 12:36:55;;;;;;;7.28;4.40;;;24.60;51.70;;;;;;4811413;29;20188;-84
2023/06/28 12:39:28;;;;;;;7.03;4.72;;;24.60;51.50;;;;;;4812811;29;20215;-84
2023/06/28 12:42:18;;;;;;;7.50;4.88;;;24.60;51.40;;;;;;4810174;29;20165;-84
2023/06/28 12:45:00;;;;;;;5.15;4.60;;;24.50;51.10;;;;;;4810833;29;20186;-85
2023/06/28 12:47:28;;;;;;;7.53;4.40;;;24.50;51.30;;;;;;4810834;29;20163;-84
2023/06/28 12:49:55;;;;;;;5.50;4.15;;;24.60;51.30;;;;;;4793099;30;20195;-84
2023/06/28 12:52:21;;;;;;;7.70;4.50;;;24.60;51.20;;;;;;4794882;30;20533;-84
2023/06/28 12:54:50;;;;;;;7.70;4.70;;;24.60;51.10;;;;;;4796416;30;20175;-83
2023/06/28 12:57:17;;;;;;;8.65;5.00;;;24.60;51.10;;;;;;4809405;29;20243;-86
2023/06/28 12:59:44;;;;;;;5.32;4.50;;;24.70;50.90;;;;;;4808849;29;20247;-85